sensor_id;sensor_type;location;lat;lon;timestamp;P1;durP1;ratioP1;P2;durP2;ratioP2
32080;SDS011;18593;51.426;7.030;2023-04-29T00:01:22;56.10;;;33.70;;
32080;SDS011;18593;51.426;7.030;2023-04-29T00:03:50;55.42;;;34.40;;
32080;SDS011;18593;51.426;7.030;2023-04-29T00:06:17;53.20;;;32.80;;
32080;SDS011;18593;51.426;7.030;2023-04-29T00:08:44;51.58;;;32.42;;
32080;SDS011;18593;51.426;7.030;2023-04-29T00:11:11;51.60;;;31.67;;
32080;SDS011;18593;51.426;7.030;2023-04-29T00:13:38;54.25;;;31.67;;
32080;SDS011;18593;51.426;7.030;2023-04-29T00:16:06;54.55;;;32.60;;
32080;SDS011;18593;51.426;7.030;2023-04-29T00:18:35;49.63;;;30.75;;
32080;SDS011;18593;51.426;7.030;2023-04-29T00:21:03;48.80;;;30.50;;
32080;SDS011;18593;51.426;7.030;2023-04-29T00:23:31;55.97;;;33.45;;
32080;SDS011;18593;51.426;7.030;2023-04-29T00:25:58;50.92;;;31.58;;
32080;SDS011;18593;51.426;7.030;2023-04-29T00:28:25;48.80;;;31.17;;
32080;SDS011;18593;51.426;7.030;2023-04-29T00:30:53;53.25;;;31.38;;
32080;SDS011;18593;51.426;7.030;2023-04-29T00:33:20;53.08;;;32.67;;
32080;SDS011;18593;51.426;7.030;2023-04-29T00:35:49;49.15;;;30.67;;
32080;SDS011;18593;51.426;7.030;2023-04-29T00:38:16;48.13;;;30.30;;
32080;SDS011;18593;51.426;7.030;2023-04-29T00:40:44;56.60;;;33.25;;
32080;SDS011;18593;51.426;7.030;2023-04-29T00:43:12;60.13;;;34.88;;
32080;SDS011;18593;51.426;7.030;2023-04-29T00:45:39;56.42;;;32.00;;
32080;SDS011;18593;51.426;7.030;2023-04-29T00:48:06;59.78;;;33.03;;
32080;SDS011;18593;51.426;7.030;2023-04-29T00:50:33;61.72;;;36.47;;
32080;SDS011;18593;51.426;7.030;2023-04-29T00:53:03;67.18;;;37.70;;
32080;SDS011;18593;51.426;7.030;2023-04-29T00:55:31;72.55;;;40.50;;
32080;SDS011;18593;51.426;7.030;2023-04-29T00:57:59;67.63;;;38.90;;
32080;SDS011;18593;51.426;7.030;2023-04-29T01:00:28;73.72;;;39.58;;
32080;SDS011;18593;51.426;7.030;2023-04-29T01:02:56;70.47;;;40.85;;
32080;SDS011;18593;51.426;7.030;2023-04-29T01:05:24;70.43;;;38.78;;
32080;SDS011;18593;51.426;7.030;2023-04-29T01:07:55;82.82;;;43.40;;
32080;SDS011;18593;51.426;7.030;2023-04-29T01:10:38;78.45;;;41.17;;
32080;SDS011;18593;51.426;7.030;2023-04-29T01:13:16;74.95;;;40.15;;
32080;SDS011;18593;51.426;7.030;2023-04-29T01:15:53;77.78;;;42.88;;
32080;SDS011;18593;51.426;7.030;2023-04-29T01:18:28;83.72;;;42.05;;
32080;SDS011;18593;51.426;7.030;2023-04-29T01:21:02;82.40;;;42.78;;
32080;SDS011;18593;51.426;7.030;2023-04-29T01:23:30;82.90;;;44.03;;
32080;SDS011;18593;51.426;7.030;2023-04-29T01:25:58;93.05;;;45.15;;
32080;SDS011;18593;51.426;7.030;2023-04-29T01:28:42;84.03;;;41.67;;
32080;SDS011;18593;51.426;7.030;2023-04-29T01:31:17;80.65;;;40.53;;
32080;SDS011;18593;51.426;7.030;2023-04-29T01:33:53;77.28;;;38.70;;
32080;SDS011;18593;51.426;7.030;2023-04-29T01:36:36;84.75;;;42.10;;
32080;SDS011;18593;51.426;7.030;2023-04-29T01:39:15;81.90;;;41.50;;
32080;SDS011;18593;51.426;7.030;2023-04-29T01:42:05;86.27;;;43.30;;
32080;SDS011;18593;51.426;7.030;2023-04-29T01:44:41;91.97;;;43.60;;
32080;SDS011;18593;51.426;7.030;2023-04-29T01:47:11;90.00;;;45.38;;
32080;SDS011;18593;51.426;7.030;2023-04-29T01:49:45;97.20;;;46.00;;
32080;SDS011;18593;51.426;7.030;2023-04-29T01:52:12;107.13;;;49.10;;
32080;SDS011;18593;51.426;7.030;2023-04-29T01:54:50;111.88;;;50.40;;
32080;SDS011;18593;51.426;7.030;2023-04-29T01:57:17;103.93;;;51.05;;
32080;SDS011;18593;51.426;7.030;2023-04-29T02:00:05;107.68;;;50.85;;
32080;SDS011;18593;51.426;7.030;2023-04-29T02:02:38;106.30;;;50.85;;
32080;SDS011;18593;51.426;7.030;2023-04-29T02:05:24;103.63;;;50.03;;
32080;SDS011;18593;51.426;7.030;2023-04-29T02:07:54;115.85;;;50.53;;
32080;SDS011;18593;51.426;7.030;2023-04-29T02:10:23;107.85;;;50.08;;
32080;SDS011;18593;51.426;7.030;2023-04-29T02:12:59;117.15;;;51.60;;
32080;SDS011;18593;51.426;7.030;2023-04-29T02:15:28;108.63;;;48.25;;
32080;SDS011;18593;51.426;7.030;2023-04-29T02:17:55;110.00;;;47.30;;
32080;SDS011;18593;51.426;7.030;2023-04-29T02:20:22;104.03;;;43.53;;
32080;SDS011;18593;51.426;7.030;2023-04-29T02:22:49;119.90;;;46.53;;
32080;SDS011;18593;51.426;7.030;2023-04-29T02:25:17;109.13;;;45.47;;
32080;SDS011;18593;51.426;7.030;2023-04-29T02:27:45;100.90;;;42.95;;
32080;SDS011;18593;51.426;7.030;2023-04-29T02:30:12;94.57;;;41.70;;
32080;SDS011;18593;51.426;7.030;2023-04-29T02:32:40;91.22;;;41.17;;
32080;SDS011;18593;51.426;7.030;2023-04-29T02:35:07;78.63;;;37.30;;
32080;SDS011;18593;51.426;7.030;2023-04-29T02:37:35;81.05;;;37.60;;
32080;SDS011;18593;51.426;7.030;2023-04-29T02:40:02;72.00;;;35.80;;
32080;SDS011;18593;51.426;7.030;2023-04-29T02:42:31;77.53;;;36.60;;
32080;SDS011;18593;51.426;7.030;2023-04-29T02:45:01;73.97;;;36.10;;
32080;SDS011;18593;51.426;7.030;2023-04-29T02:47:28;72.00;;;35.42;;
32080;SDS011;18593;51.426;7.030;2023-04-29T02:49:55;68.28;;;34.40;;
32080;SDS011;18593;51.426;7.030;2023-04-29T02:52:22;68.63;;;32.70;;
32080;SDS011;18593;51.426;7.030;2023-04-29T02:54:50;60.53;;;31.33;;
32080;SDS011;18593;51.426;7.030;2023-04-29T02:57:17;58.75;;;31.10;;
32080;SDS011;18593;51.426;7.030;2023-04-29T02:59:44;57.33;;;30.73;;
32080;SDS011;18593;51.426;7.030;2023-04-29T03:02:12;57.53;;;30.48;;
32080;SDS011;18593;51.426;7.030;2023-04-29T03:04:42;60.45;;;30.17;;
32080;SDS011;18593;51.426;7.030;2023-04-29T03:07:09;55.70;;;30.20;;
32080;SDS011;18593;51.426;7.030;2023-04-29T03:09:37;59.63;;;30.00;;
32080;SDS011;18593;51.426;7.030;2023-04-29T03:12:04;57.90;;;29.65;;
32080;SDS011;18593;51.426;7.030;2023-04-29T03:14:31;56.88;;;30.15;;
32080;SDS011;18593;51.426;7.030;2023-04-29T03:16:59;55.15;;;29.35;;
32080;SDS011;18593;51.426;7.030;2023-04-29T03:19:27;58.65;;;30.88;;
32080;SDS011;18593;51.426;7.030;2023-04-29T03:21:54;58.00;;;31.35;;
32080;SDS011;18593;51.426;7.030;2023-04-29T03:24:22;50.88;;;28.17;;
32080;SDS011;18593;51.426;7.030;2023-04-29T03:26:49;51.70;;;27.85;;
32080;SDS011;18593;51.426;7.030;2023-04-29T03:29:18;48.75;;;26.00;;
32080;SDS011;18593;51.426;7.030;2023-04-29T03:31:46;53.45;;;27.80;;
32080;SDS011;18593;51.426;7.030;2023-04-29T03:34:13;50.70;;;27.13;;
32080;SDS011;18593;51.426;7.030;2023-04-29T03:36:47;49.72;;;27.98;;
32080;SDS011;18593;51.426;7.030;2023-04-29T03:39:15;51.03;;;28.05;;
32080;SDS011;18593;51.426;7.030;2023-04-29T03:41:42;50.60;;;28.42;;
32080;SDS011;18593;51.426;7.030;2023-04-29T03:44:09;54.50;;;28.02;;
32080;SDS011;18593;51.426;7.030;2023-04-29T03:46:38;52.95;;;28.98;;
32080;SDS011;18593;51.426;7.030;2023-04-29T03:49:05;60.28;;;29.60;;
32080;SDS011;18593;51.426;7.030;2023-04-29T03:51:32;54.13;;;29.33;;
32080;SDS011;18593;51.426;7.030;2023-04-29T03:54:10;48.95;;;27.77;;
32080;SDS011;18593;51.426;7.030;2023-04-29T03:56:38;48.53;;;27.60;;
32080;SDS011;18593;51.426;7.030;2023-04-29T03:59:05;52.97;;;28.33;;
32080;SDS011;18593;51.426;7.030;2023-04-29T04:01:32;51.08;;;27.58;;
32080;SDS011;18593;51.426;7.030;2023-04-29T04:04:00;48.53;;;26.50;;
32080;SDS011;18593;51.426;7.030;2023-04-29T04:06:29;44.90;;;26.98;;
32080;SDS011;18593;51.426;7.030;2023-04-29T04:08:56;47.70;;;26.13;;
32080;SDS011;18593;51.426;7.030;2023-04-29T04:11:28;44.30;;;25.63;;
32080;SDS011;18593;51.426;7.030;2023-04-29T04:13:58;48.38;;;25.88;;
32080;SDS011;18593;51.426;7.030;2023-04-29T04:16:26;48.50;;;25.88;;
32080;SDS011;18593;51.426;7.030;2023-04-29T04:18:53;41.97;;;23.88;;
32080;SDS011;18593;51.426;7.030;2023-04-29T04:21:20;45.20;;;25.33;;
32080;SDS011;18593;51.426;7.030;2023-04-29T04:23:56;43.78;;;24.83;;
32080;SDS011;18593;51.426;7.030;2023-04-29T04:26:24;46.92;;;24.70;;
32080;SDS011;18593;51.426;7.030;2023-04-29T04:29:07;39.05;;;23.15;;
32080;SDS011;18593;51.426;7.030;2023-04-29T04:31:44;42.85;;;24.60;;
32080;SDS011;18593;51.426;7.030;2023-04-29T04:34:11;42.00;;;24.08;;
32080;SDS011;18593;51.426;7.030;2023-04-29T04:36:39;39.95;;;23.35;;
32080;SDS011;18593;51.426;7.030;2023-04-29T04:39:06;42.83;;;24.25;;
32080;SDS011;18593;51.426;7.030;2023-04-29T04:41:34;39.15;;;23.10;;
32080;SDS011;18593;51.426;7.030;2023-04-29T04:44:01;43.40;;;24.77;;
32080;SDS011;18593;51.426;7.030;2023-04-29T04:46:40;43.15;;;24.35;;
32080;SDS011;18593;51.426;7.030;2023-04-29T04:49:13;38.47;;;22.58;;
32080;SDS011;18593;51.426;7.030;2023-04-29T04:51:50;42.88;;;23.85;;
32080;SDS011;18593;51.426;7.030;2023-04-29T04:54:17;39.92;;;22.63;;
32080;SDS011;18593;51.426;7.030;2023-04-29T04:56:48;39.58;;;23.25;;
32080;SDS011;18593;51.426;7.030;2023-04-29T04:59:16;46.28;;;24.23;;
32080;SDS011;18593;51.426;7.030;2023-04-29T05:01:45;42.80;;;24.45;;
32080;SDS011;18593;51.426;7.030;2023-04-29T05:04:12;40.33;;;23.70;;
32080;SDS011;18593;51.426;7.030;2023-04-29T05:06:40;40.72;;;24.40;;
32080;SDS011;18593;51.426;7.030;2023-04-29T05:09:07;36.63;;;22.20;;
32080;SDS011;18593;51.426;7.030;2023-04-29T05:11:35;41.55;;;23.88;;
32080;SDS011;18593;51.426;7.030;2023-04-29T05:14:11;48.33;;;23.60;;
32080;SDS011;18593;51.426;7.030;2023-04-29T05:16:38;41.97;;;24.00;;
32080;SDS011;18593;51.426;7.030;2023-04-29T05:19:08;50.67;;;25.20;;
32080;SDS011;18593;51.426;7.030;2023-04-29T05:21:38;40.58;;;22.85;;
32080;SDS011;18593;51.426;7.030;2023-04-29T05:24:07;39.33;;;22.95;;
32080;SDS011;18593;51.426;7.030;2023-04-29T05:26:35;43.88;;;24.38;;
32080;SDS011;18593;51.426;7.030;2023-04-29T05:29:04;40.75;;;23.70;;
32080;SDS011;18593;51.426;7.030;2023-04-29T05:31:40;37.83;;;22.42;;
32080;SDS011;18593;51.426;7.030;2023-04-29T05:34:09;44.05;;;24.85;;
32080;SDS011;18593;51.426;7.030;2023-04-29T05:36:36;39.13;;;22.58;;
32080;SDS011;18593;51.426;7.030;2023-04-29T05:39:03;38.55;;;22.77;;
32080;SDS011;18593;51.426;7.030;2023-04-29T05:41:31;38.88;;;23.38;;
32080;SDS011;18593;51.426;7.030;2023-04-29T05:44:18;37.00;;;23.65;;
32080;SDS011;18593;51.426;7.030;2023-04-29T05:46:45;38.78;;;23.58;;
32080;SDS011;18593;51.426;7.030;2023-04-29T05:49:14;40.90;;;24.30;;
32080;SDS011;18593;51.426;7.030;2023-04-29T05:51:42;42.08;;;23.73;;
32080;SDS011;18593;51.426;7.030;2023-04-29T05:54:09;43.13;;;24.63;;
32080;SDS011;18593;51.426;7.030;2023-04-29T05:56:36;41.72;;;23.25;;
32080;SDS011;18593;51.426;7.030;2023-04-29T05:59:03;38.97;;;23.50;;
32080;SDS011;18593;51.426;7.030;2023-04-29T06:01:31;38.58;;;23.35;;
32080;SDS011;18593;51.426;7.030;2023-04-29T06:03:58;40.25;;;24.10;;
32080;SDS011;18593;51.426;7.030;2023-04-29T06:06:36;42.95;;;24.90;;
32080;SDS011;18593;51.426;7.030;2023-04-29T06:11:33;39.03;;;22.85;;
32080;SDS011;18593;51.426;7.030;2023-04-29T06:14:00;35.97;;;22.65;;
32080;SDS011;18593;51.426;7.030;2023-04-29T06:16:28;36.70;;;22.35;;
32080;SDS011;18593;51.426;7.030;2023-04-29T06:18:55;40.75;;;23.50;;
32080;SDS011;18593;51.426;7.030;2023-04-29T06:21:22;36.13;;;22.98;;
32080;SDS011;18593;51.426;7.030;2023-04-29T06:23:51;36.85;;;23.20;;
32080;SDS011;18593;51.426;7.030;2023-04-29T06:26:19;39.88;;;23.70;;
32080;SDS011;18593;51.426;7.030;2023-04-29T06:28:46;37.42;;;23.17;;
32080;SDS011;18593;51.426;7.030;2023-04-29T06:31:14;34.65;;;22.23;;
32080;SDS011;18593;51.426;7.030;2023-04-29T06:33:42;39.20;;;23.45;;
32080;SDS011;18593;51.426;7.030;2023-04-29T06:36:19;40.58;;;24.13;;
32080;SDS011;18593;51.426;7.030;2023-04-29T06:39:07;41.15;;;24.13;;
32080;SDS011;18593;51.426;7.030;2023-04-29T06:41:52;38.42;;;23.35;;
32080;SDS011;18593;51.426;7.030;2023-04-29T06:44:43;42.75;;;24.95;;
32080;SDS011;18593;51.426;7.030;2023-04-29T06:47:29;35.42;;;23.77;;
32080;SDS011;18593;51.426;7.030;2023-04-29T06:50:17;41.15;;;24.65;;
32080;SDS011;18593;51.426;7.030;2023-04-29T06:52:44;39.58;;;23.77;;
32080;SDS011;18593;51.426;7.030;2023-04-29T06:55:13;36.70;;;22.88;;
32080;SDS011;18593;51.426;7.030;2023-04-29T06:57:41;40.17;;;23.88;;
32080;SDS011;18593;51.426;7.030;2023-04-29T07:00:08;39.30;;;23.58;;
32080;SDS011;18593;51.426;7.030;2023-04-29T07:02:36;41.42;;;23.35;;
32080;SDS011;18593;51.426;7.030;2023-04-29T07:05:04;41.67;;;24.35;;
32080;SDS011;18593;51.426;7.030;2023-04-29T07:07:33;40.83;;;24.35;;
32080;SDS011;18593;51.426;7.030;2023-04-29T07:10:01;46.67;;;24.48;;
32080;SDS011;18593;51.426;7.030;2023-04-29T07:12:31;39.03;;;24.52;;
32080;SDS011;18593;51.426;7.030;2023-04-29T07:14:59;37.33;;;22.10;;
32080;SDS011;18593;51.426;7.030;2023-04-29T07:17:28;36.55;;;22.95;;
32080;SDS011;18593;51.426;7.030;2023-04-29T07:19:56;38.78;;;22.67;;
32080;SDS011;18593;51.426;7.030;2023-04-29T07:22:23;36.53;;;22.65;;
32080;SDS011;18593;51.426;7.030;2023-04-29T07:24:51;38.30;;;24.23;;
32080;SDS011;18593;51.426;7.030;2023-04-29T07:27:19;45.38;;;23.75;;
32080;SDS011;18593;51.426;7.030;2023-04-29T07:29:48;34.92;;;22.35;;
32080;SDS011;18593;51.426;7.030;2023-04-29T07:32:15;38.63;;;23.38;;
32080;SDS011;18593;51.426;7.030;2023-04-29T07:34:43;40.95;;;24.60;;
32080;SDS011;18593;51.426;7.030;2023-04-29T07:37:10;42.17;;;25.83;;
32080;SDS011;18593;51.426;7.030;2023-04-29T07:39:38;38.38;;;24.15;;
32080;SDS011;18593;51.426;7.030;2023-04-29T07:42:07;41.08;;;25.38;;
32080;SDS011;18593;51.426;7.030;2023-04-29T07:44:34;38.92;;;24.38;;
32080;SDS011;18593;51.426;7.030;2023-04-29T07:47:03;40.30;;;23.88;;
32080;SDS011;18593;51.426;7.030;2023-04-29T07:49:30;43.50;;;24.02;;
32080;SDS011;18593;51.426;7.030;2023-04-29T07:51:57;39.63;;;23.40;;
32080;SDS011;18593;51.426;7.030;2023-04-29T07:54:24;37.55;;;22.98;;
32080;SDS011;18593;51.426;7.030;2023-04-29T07:56:52;39.00;;;25.00;;
32080;SDS011;18593;51.426;7.030;2023-04-29T07:59:19;40.97;;;24.83;;
32080;SDS011;18593;51.426;7.030;2023-04-29T08:01:47;43.67;;;25.75;;
32080;SDS011;18593;51.426;7.030;2023-04-29T08:04:15;42.80;;;25.67;;
32080;SDS011;18593;51.426;7.030;2023-04-29T08:06:49;44.65;;;26.23;;
32080;SDS011;18593;51.426;7.030;2023-04-29T08:09:16;47.33;;;28.13;;
32080;SDS011;18593;51.426;7.030;2023-04-29T08:11:44;46.85;;;26.67;;
32080;SDS011;18593;51.426;7.030;2023-04-29T08:14:12;46.60;;;27.85;;
32080;SDS011;18593;51.426;7.030;2023-04-29T08:16:39;50.55;;;28.58;;
32080;SDS011;18593;51.426;7.030;2023-04-29T08:19:08;50.88;;;28.90;;
32080;SDS011;18593;51.426;7.030;2023-04-29T08:21:37;51.20;;;29.52;;
32080;SDS011;18593;51.426;7.030;2023-04-29T08:24:04;55.00;;;30.35;;
32080;SDS011;18593;51.426;7.030;2023-04-29T08:26:31;54.15;;;31.00;;
32080;SDS011;18593;51.426;7.030;2023-04-29T08:28:58;55.90;;;31.65;;
32080;SDS011;18593;51.426;7.030;2023-04-29T08:31:26;50.45;;;29.75;;
32080;SDS011;18593;51.426;7.030;2023-04-29T08:33:53;55.75;;;30.55;;
32080;SDS011;18593;51.426;7.030;2023-04-29T08:36:22;59.22;;;31.73;;
32080;SDS011;18593;51.426;7.030;2023-04-29T08:38:54;56.97;;;31.02;;
32080;SDS011;18593;51.426;7.030;2023-04-29T08:41:21;65.75;;;31.58;;
32080;SDS011;18593;51.426;7.030;2023-04-29T08:43:49;70.90;;;38.03;;
32080;SDS011;18593;51.426;7.030;2023-04-29T08:46:16;67.82;;;37.20;;
32080;SDS011;18593;51.426;7.030;2023-04-29T08:48:44;68.13;;;37.75;;
32080;SDS011;18593;51.426;7.030;2023-04-29T08:51:12;68.38;;;37.78;;
32080;SDS011;18593;51.426;7.030;2023-04-29T08:53:39;73.68;;;38.97;;
32080;SDS011;18593;51.426;7.030;2023-04-29T08:56:11;68.25;;;37.55;;
32080;SDS011;18593;51.426;7.030;2023-04-29T08:58:44;65.82;;;34.72;;
32080;SDS011;18593;51.426;7.030;2023-04-29T09:01:11;62.15;;;34.65;;
32080;SDS011;18593;51.426;7.030;2023-04-29T09:03:41;59.72;;;34.45;;
32080;SDS011;18593;51.426;7.030;2023-04-29T09:06:16;69.25;;;37.92;;
32080;SDS011;18593;51.426;7.030;2023-04-29T09:08:44;72.78;;;40.72;;
32080;SDS011;18593;51.426;7.030;2023-04-29T09:11:12;63.92;;;36.65;;
32080;SDS011;18593;51.426;7.030;2023-04-29T09:13:40;57.13;;;33.08;;
32080;SDS011;18593;51.426;7.030;2023-04-29T09:16:11;64.60;;;33.67;;
32080;SDS011;18593;51.426;7.030;2023-04-29T09:18:42;58.88;;;34.20;;
32080;SDS011;18593;51.426;7.030;2023-04-29T09:21:11;56.40;;;33.88;;
32080;SDS011;18593;51.426;7.030;2023-04-29T09:23:41;59.75;;;34.72;;
32080;SDS011;18593;51.426;7.030;2023-04-29T09:26:08;57.50;;;34.95;;
32080;SDS011;18593;51.426;7.030;2023-04-29T09:28:37;68.53;;;37.00;;
32080;SDS011;18593;51.426;7.030;2023-04-29T09:31:07;63.58;;;36.63;;
32080;SDS011;18593;51.426;7.030;2023-04-29T09:33:50;62.55;;;35.95;;
32080;SDS011;18593;51.426;7.030;2023-04-29T09:36:35;59.65;;;35.55;;
32080;SDS011;18593;51.426;7.030;2023-04-29T09:39:04;66.55;;;35.67;;
32080;SDS011;18593;51.426;7.030;2023-04-29T09:44:06;66.15;;;37.38;;
32080;SDS011;18593;51.426;7.030;2023-04-29T09:46:35;64.57;;;38.00;;
32080;SDS011;18593;51.426;7.030;2023-04-29T09:49:03;61.10;;;37.80;;
32080;SDS011;18593;51.426;7.030;2023-04-29T09:51:52;67.55;;;38.25;;
32080;SDS011;18593;51.426;7.030;2023-04-29T09:54:21;64.32;;;37.55;;
32080;SDS011;18593;51.426;7.030;2023-04-29T09:56:50;64.05;;;37.20;;
32080;SDS011;18593;51.426;7.030;2023-04-29T09:59:20;68.40;;;37.97;;
32080;SDS011;18593;51.426;7.030;2023-04-29T10:01:49;67.53;;;37.30;;
32080;SDS011;18593;51.426;7.030;2023-04-29T10:04:19;71.40;;;38.57;;
32080;SDS011;18593;51.426;7.030;2023-04-29T10:06:48;61.10;;;37.28;;
32080;SDS011;18593;51.426;7.030;2023-04-29T10:09:17;65.35;;;36.33;;
32080;SDS011;18593;51.426;7.030;2023-04-29T10:11:46;60.45;;;35.50;;
32080;SDS011;18593;51.426;7.030;2023-04-29T10:14:15;59.47;;;35.67;;
32080;SDS011;18593;51.426;7.030;2023-04-29T10:16:46;56.80;;;35.83;;
32080;SDS011;18593;51.426;7.030;2023-04-29T10:19:17;55.67;;;34.95;;
32080;SDS011;18593;51.426;7.030;2023-04-29T10:21:59;53.70;;;34.97;;
32080;SDS011;18593;51.426;7.030;2023-04-29T10:24:34;62.13;;;36.80;;
32080;SDS011;18593;51.426;7.030;2023-04-29T10:27:02;56.90;;;35.53;;
32080;SDS011;18593;51.426;7.030;2023-04-29T10:29:33;61.80;;;36.88;;
32080;SDS011;18593;51.426;7.030;2023-04-29T10:32:07;61.47;;;36.45;;
32080;SDS011;18593;51.426;7.030;2023-04-29T10:34:37;59.28;;;37.28;;
32080;SDS011;18593;51.426;7.030;2023-04-29T10:37:04;59.15;;;36.67;;
32080;SDS011;18593;51.426;7.030;2023-04-29T10:39:35;60.83;;;36.92;;
32080;SDS011;18593;51.426;7.030;2023-04-29T10:42:14;62.33;;;36.65;;
32080;SDS011;18593;51.426;7.030;2023-04-29T10:51:00;55.08;;;36.70;;
32080;SDS011;18593;51.426;7.030;2023-04-29T10:53:27;56.88;;;37.30;;
32080;SDS011;18593;51.426;7.030;2023-04-29T10:55:55;56.33;;;35.50;;
32080;SDS011;18593;51.426;7.030;2023-04-29T10:58:35;54.08;;;35.03;;
32080;SDS011;18593;51.426;7.030;2023-04-29T11:01:12;48.22;;;33.42;;
32080;SDS011;18593;51.426;7.030;2023-04-29T11:03:49;55.47;;;33.47;;
32080;SDS011;18593;51.426;7.030;2023-04-29T11:09:00;54.10;;;32.58;;
32080;SDS011;18593;51.426;7.030;2023-04-29T11:11:39;53.22;;;34.88;;
32080;SDS011;18593;51.426;7.030;2023-04-29T11:14:08;52.92;;;34.90;;
32080;SDS011;18593;51.426;7.030;2023-04-29T11:16:36;51.53;;;35.15;;
32080;SDS011;18593;51.426;7.030;2023-04-29T11:19:05;53.60;;;34.40;;
32080;SDS011;18593;51.426;7.030;2023-04-29T11:21:34;49.17;;;34.20;;
32080;SDS011;18593;51.426;7.030;2023-04-29T11:24:02;48.97;;;32.97;;
32080;SDS011;18593;51.426;7.030;2023-04-29T11:26:31;55.25;;;34.33;;
32080;SDS011;18593;51.426;7.030;2023-04-29T11:28:59;49.20;;;31.88;;
32080;SDS011;18593;51.426;7.030;2023-04-29T11:31:29;51.08;;;33.25;;
32080;SDS011;18593;51.426;7.030;2023-04-29T11:33:56;47.97;;;33.58;;
32080;SDS011;18593;51.426;7.030;2023-04-29T11:36:26;45.70;;;32.55;;
32080;SDS011;18593;51.426;7.030;2023-04-29T11:38:53;44.65;;;31.55;;
32080;SDS011;18593;51.426;7.030;2023-04-29T11:41:20;48.65;;;31.85;;
32080;SDS011;18593;51.426;7.030;2023-04-29T11:43:53;49.13;;;33.60;;
32080;SDS011;18593;51.426;7.030;2023-04-29T11:46:22;43.33;;;31.23;;
32080;SDS011;18593;51.426;7.030;2023-04-29T11:48:50;43.88;;;29.98;;
32080;SDS011;18593;51.426;7.030;2023-04-29T11:51:17;45.88;;;32.13;;
32080;SDS011;18593;51.426;7.030;2023-04-29T11:53:46;43.55;;;31.80;;
32080;SDS011;18593;51.426;7.030;2023-04-29T11:56:13;44.03;;;32.13;;
32080;SDS011;18593;51.426;7.030;2023-04-29T11:58:41;48.33;;;31.83;;
32080;SDS011;18593;51.426;7.030;2023-04-29T12:01:09;49.45;;;32.72;;
32080;SDS011;18593;51.426;7.030;2023-04-29T12:03:36;43.67;;;32.55;;
32080;SDS011;18593;51.426;7.030;2023-04-29T12:06:03;47.42;;;33.40;;
32080;SDS011;18593;51.426;7.030;2023-04-29T12:08:31;46.40;;;33.20;;
32080;SDS011;18593;51.426;7.030;2023-04-29T12:11:00;46.95;;;31.25;;
32080;SDS011;18593;51.426;7.030;2023-04-29T12:13:28;44.35;;;31.77;;
32080;SDS011;18593;51.426;7.030;2023-04-29T12:15:56;40.47;;;29.83;;
32080;SDS011;18593;51.426;7.030;2023-04-29T12:18:24;43.92;;;29.90;;
32080;SDS011;18593;51.426;7.030;2023-04-29T12:20:52;39.45;;;28.08;;
32080;SDS011;18593;51.426;7.030;2023-04-29T12:23:21;37.65;;;29.17;;
32080;SDS011;18593;51.426;7.030;2023-04-29T12:25:51;43.60;;;29.75;;
32080;SDS011;18593;51.426;7.030;2023-04-29T12:28:22;41.05;;;29.00;;
32080;SDS011;18593;51.426;7.030;2023-04-29T12:30:50;42.20;;;28.58;;
32080;SDS011;18593;51.426;7.030;2023-04-29T12:33:19;38.75;;;28.83;;
32080;SDS011;18593;51.426;7.030;2023-04-29T12:35:47;39.40;;;27.40;;
32080;SDS011;18593;51.426;7.030;2023-04-29T12:38:18;35.03;;;25.35;;
32080;SDS011;18593;51.426;7.030;2023-04-29T12:43:15;39.80;;;27.15;;
32080;SDS011;18593;51.426;7.030;2023-04-29T12:45:44;36.85;;;27.73;;
32080;SDS011;18593;51.426;7.030;2023-04-29T12:48:11;33.40;;;26.30;;
32080;SDS011;18593;51.426;7.030;2023-04-29T12:50:39;36.50;;;24.27;;
32080;SDS011;18593;51.426;7.030;2023-04-29T12:53:07;33.20;;;23.65;;
32080;SDS011;18593;51.426;7.030;2023-04-29T12:55:36;30.60;;;21.73;;
32080;SDS011;18593;51.426;7.030;2023-04-29T12:58:04;28.40;;;21.50;;
32080;SDS011;18593;51.426;7.030;2023-04-29T13:00:33;30.45;;;21.50;;
32080;SDS011;18593;51.426;7.030;2023-04-29T13:03:03;29.70;;;21.48;;
32080;SDS011;18593;51.426;7.030;2023-04-29T13:05:31;28.73;;;20.40;;
32080;SDS011;18593;51.426;7.030;2023-04-29T13:08:00;25.58;;;20.45;;
32080;SDS011;18593;51.426;7.030;2023-04-29T13:10:29;27.00;;;19.92;;
32080;SDS011;18593;51.426;7.030;2023-04-29T13:12:57;27.35;;;19.48;;
32080;SDS011;18593;51.426;7.030;2023-04-29T13:15:24;29.50;;;19.52;;
32080;SDS011;18593;51.426;7.030;2023-04-29T13:17:52;24.27;;;18.10;;
32080;SDS011;18593;51.426;7.030;2023-04-29T13:20:21;28.02;;;17.52;;
32080;SDS011;18593;51.426;7.030;2023-04-29T13:22:48;24.20;;;17.33;;
32080;SDS011;18593;51.426;7.030;2023-04-29T13:25:16;21.38;;;16.58;;
32080;SDS011;18593;51.426;7.030;2023-04-29T13:27:43;29.60;;;16.75;;
32080;SDS011;18593;51.426;7.030;2023-04-29T13:30:10;26.15;;;17.80;;
32080;SDS011;18593;51.426;7.030;2023-04-29T13:32:38;25.05;;;16.33;;
32080;SDS011;18593;51.426;7.030;2023-04-29T13:35:06;21.77;;;15.32;;
32080;SDS011;18593;51.426;7.030;2023-04-29T13:37:35;23.75;;;14.73;;
32080;SDS011;18593;51.426;7.030;2023-04-29T13:40:03;21.70;;;15.00;;
32080;SDS011;18593;51.426;7.030;2023-04-29T13:42:32;23.83;;;15.02;;
32080;SDS011;18593;51.426;7.030;2023-04-29T13:44:59;21.23;;;13.68;;
32080;SDS011;18593;51.426;7.030;2023-04-29T13:47:27;22.20;;;13.88;;
32080;SDS011;18593;51.426;7.030;2023-04-29T13:49:55;19.40;;;13.70;;
32080;SDS011;18593;51.426;7.030;2023-04-29T13:52:22;19.88;;;13.20;;
32080;SDS011;18593;51.426;7.030;2023-04-29T13:54:50;21.92;;;12.85;;
32080;SDS011;18593;51.426;7.030;2023-04-29T13:57:18;18.33;;;12.10;;
32080;SDS011;18593;51.426;7.030;2023-04-29T13:59:45;18.73;;;11.77;;
32080;SDS011;18593;51.426;7.030;2023-04-29T14:02:12;17.80;;;12.65;;
32080;SDS011;18593;51.426;7.030;2023-04-29T14:04:39;17.95;;;12.85;;
32080;SDS011;18593;51.426;7.030;2023-04-29T14:07:07;19.23;;;12.93;;
32080;SDS011;18593;51.426;7.030;2023-04-29T14:09:34;17.10;;;12.65;;
32080;SDS011;18593;51.426;7.030;2023-04-29T14:12:03;17.65;;;13.30;;
32080;SDS011;18593;51.426;7.030;2023-04-29T14:14:36;20.50;;;13.50;;
32080;SDS011;18593;51.426;7.030;2023-04-29T14:17:11;21.45;;;12.70;;
32080;SDS011;18593;51.426;7.030;2023-04-29T14:19:38;20.55;;;14.05;;
32080;SDS011;18593;51.426;7.030;2023-04-29T14:22:05;20.13;;;13.52;;
32080;SDS011;18593;51.426;7.030;2023-04-29T14:24:32;19.55;;;13.38;;
32080;SDS011;18593;51.426;7.030;2023-04-29T14:27:00;18.83;;;13.43;;
32080;SDS011;18593;51.426;7.030;2023-04-29T14:29:29;22.63;;;14.02;;
32080;SDS011;18593;51.426;7.030;2023-04-29T14:31:56;20.13;;;13.35;;
32080;SDS011;18593;51.426;7.030;2023-04-29T14:34:23;18.17;;;13.05;;
32080;SDS011;18593;51.426;7.030;2023-04-29T14:36:50;18.27;;;12.40;;
32080;SDS011;18593;51.426;7.030;2023-04-29T14:39:17;18.50;;;12.50;;
32080;SDS011;18593;51.426;7.030;2023-04-29T14:41:45;17.80;;;12.90;;
32080;SDS011;18593;51.426;7.030;2023-04-29T14:44:12;18.90;;;13.27;;
32080;SDS011;18593;51.426;7.030;2023-04-29T14:46:42;23.38;;;13.35;;
32080;SDS011;18593;51.426;7.030;2023-04-29T14:49:09;19.90;;;12.75;;
32080;SDS011;18593;51.426;7.030;2023-04-29T14:51:36;20.33;;;13.18;;